sensor_id;sensor_type;location;lat;lon;timestamp;temperature;humidity
12957;DHT22;6543;48.836;10.092;2023-03-31T00:01:58;7.60;99.90
12957;DHT22;6543;48.836;10.092;2023-03-31T00:04:26;7.60;99.90
12957;DHT22;6543;48.836;10.092;2023-03-31T00:06:56;7.60;99.90
12957;DHT22;6543;48.836;10.092;2023-03-31T00:09:23;7.60;99.90
12957;DHT22;6543;48.836;10.092;2023-03-31T00:11:51;7.50;99.90
12957;DHT22;6543;48.836;10.092;2023-03-31T00:14:19;7.50;99.90
12957;DHT22;6543;48.836;10.092;2023-03-31T00:16:46;8.50;99.90
12957;DHT22;6543;48.836;10.092;2023-03-31T00:19:13;7.30;99.90
12957;DHT22;6543;48.836;10.092;2023-03-31T00:21:45;7.30;99.90
12957;DHT22;6543;48.836;10.092;2023-03-31T00:24:13;7.30;99.90
12957;DHT22;6543;48.836;10.092;2023-03-31T00:26:41;7.30;99.90
12957;DHT22;6543;48.836;10.092;2023-03-31T00:29:11;7.20;99.90
12957;DHT22;6543;48.836;10.092;2023-03-31T00:31:38;7.20;99.90
12957;DHT22;6543;48.836;10.092;2023-03-31T00:34:06;7.30;99.90
12957;DHT22;6543;48.836;10.092;2023-03-31T00:36:33;7.20;99.90
12957;DHT22;6543;48.836;10.092;2023-03-31T00:39:03;7.20;99.90
12957;DHT22;6543;48.836;10.092;2023-03-31T00:41:31;8.60;99.90
12957;DHT22;6543;48.836;10.092;2023-03-31T00:44:06;9.20;99.90
12957;DHT22;6543;48.836;10.092;2023-03-31T00:46:39;7.20;99.90
12957;DHT22;6543;48.836;10.092;2023-03-31T00:49:13;7.20;99.90
12957;DHT22;6543;48.836;10.092;2023-03-31T00:51:42;7.20;99.90
12957;DHT22;6543;48.836;10.092;2023-03-31T00:54:10;7.20;99.90
12957;DHT22;6543;48.836;10.092;2023-03-31T00:56:40;7.20;99.90
12957;DHT22;6543;48.836;10.092;2023-03-31T00:59:10;7.20;99.90
12957;DHT22;6543;48.836;10.092;2023-03-31T01:01:40;7.30;99.90
12957;DHT22;6543;48.836;10.092;2023-03-31T01:04:09;7.30;99.90
12957;DHT22;6543;48.836;10.092;2023-03-31T01:06:42;7.40;99.90
12957;DHT22;6543;48.836;10.092;2023-03-31T01:09:12;7.30;99.90
12957;DHT22;6543;48.836;10.092;2023-03-31T01:11:42;7.40;99.90
12957;DHT22;6543;48.836;10.092;2023-03-31T01:14:11;7.40;99.90
12957;DHT22;6543;48.836;10.092;2023-03-31T01:16:39;7.40;99.90
12957;DHT22;6543;48.836;10.092;2023-03-31T01:19:11;7.40;99.90
12957;DHT22;6543;48.836;10.092;2023-03-31T01:28:17;7.50;99.90
12957;DHT22;6543;48.836;10.092;2023-03-31T01:31:30;7.50;99.90
12957;DHT22;6543;48.836;10.092;2023-03-31T01:34:27;7.50;99.90
12957;DHT22;6543;48.836;10.092;2023-03-31T01:37:28;7.60;99.90
12957;DHT22;6543;48.836;10.092;2023-03-31T01:40:18;7.70;99.90
12957;DHT22;6543;48.836;10.092;2023-03-31T01:42:52;7.70;99.90
12957;DHT22;6543;48.836;10.092;2023-03-31T01:45:27;7.70;99.90
12957;DHT22;6543;48.836;10.092;2023-03-31T01:48:01;7.80;99.90
12957;DHT22;6543;48.836;10.092;2023-03-31T01:50:34;7.90;99.90
12957;DHT22;6543;48.836;10.092;2023-03-31T01:53:07;7.90;99.90
12957;DHT22;6543;48.836;10.092;2023-03-31T01:55:40;7.90;99.90
12957;DHT22;6543;48.836;10.092;2023-03-31T01:58:12;8.00;99.90
12957;DHT22;6543;48.836;10.092;2023-03-31T02:00:44;8.00;99.90
12957;DHT22;6543;48.836;10.092;2023-03-31T02:03:19;8.10;99.90
12957;DHT22;6543;48.836;10.092;2023-03-31T02:05:51;8.30;99.90
12957;DHT22;6543;48.836;10.092;2023-03-31T02:08:21;8.50;99.90
12957;DHT22;6543;48.836;10.092;2023-03-31T02:10:51;8.60;99.90
12957;DHT22;6543;48.836;10.092;2023-03-31T02:13:20;8.70;99.90
12957;DHT22;6543;48.836;10.092;2023-03-31T02:15:51;8.80;99.90
12957;DHT22;6543;48.836;10.092;2023-03-31T02:18:21;8.80;99.90
12957;DHT22;6543;48.836;10.092;2023-03-31T02:20:52;8.80;99.90
12957;DHT22;6543;48.836;10.092;2023-03-31T02:23:24;8.90;99.90
12957;DHT22;6543;48.836;10.092;2023-03-31T02:25:59;9.00;99.90
12957;DHT22;6543;48.836;10.092;2023-03-31T02:28:28;9.00;99.90
12957;DHT22;6543;48.836;10.092;2023-03-31T02:31:04;9.00;99.90
12957;DHT22;6543;48.836;10.092;2023-03-31T02:33:32;9.30;99.90
12957;DHT22;6543;48.836;10.092;2023-03-31T02:36:00;9.10;99.90
12957;DHT22;6543;48.836;10.092;2023-03-31T02:38:27;9.20;99.90
12957;DHT22;6543;48.836;10.092;2023-03-31T02:40:57;9.40;99.90
12957;DHT22;6543;48.836;10.092;2023-03-31T02:43:24;9.40;99.90
12957;DHT22;6543;48.836;10.092;2023-03-31T02:45:51;9.90;99.90
12957;DHT22;6543;48.836;10.092;2023-03-31T02:48:20;8.30;99.90
12957;DHT22;6543;48.836;10.092;2023-03-31T02:51:21;11.60;99.90
12957;DHT22;6543;48.836;10.092;2023-03-31T02:54:10;10.20;99.90
12957;DHT22;6543;48.836;10.092;2023-03-31T02:57:05;10.00;99.90
12957;DHT22;6543;48.836;10.092;2023-03-31T02:59:44;9.90;99.90
12957;DHT22;6543;48.836;10.092;2023-03-31T03:02:17;9.80;99.90
12957;DHT22;6543;48.836;10.092;2023-03-31T03:05:10;9.50;99.90
12957;DHT22;6543;48.836;10.092;2023-03-31T03:07:45;11.10;99.90
12957;DHT22;6543;48.836;10.092;2023-03-31T03:10:18;9.80;99.90
12957;DHT22;6543;48.836;10.092;2023-03-31T03:12:52;9.40;99.90
12957;DHT22;6543;48.836;10.092;2023-03-31T03:15:24;9.30;99.90
12957;DHT22;6543;48.836;10.092;2023-03-31T03:17:52;9.30;99.90
12957;DHT22;6543;48.836;10.092;2023-03-31T03:20:20;9.60;99.90
12957;DHT22;6543;48.836;10.092;2023-03-31T03:22:47;10.60;99.90
12957;DHT22;6543;48.836;10.092;2023-03-31T03:25:15;10.50;99.90
12957;DHT22;6543;48.836;10.092;2023-03-31T03:27:43;9.70;99.90
12957;DHT22;6543;48.836;10.092;2023-03-31T03:30:13;9.60;99.90
12957;DHT22;6543;48.836;10.092;2023-03-31T03:32:40;9.50;99.90
12957;DHT22;6543;48.836;10.092;2023-03-31T03:35:08;11.10;99.90
12957;DHT22;6543;48.836;10.092;2023-03-31T03:37:36;9.20;99.90
12957;DHT22;6543;48.836;10.092;2023-03-31T03:40:05;11.10;99.90
12957;DHT22;6543;48.836;10.092;2023-03-31T03:42:33;9.10;99.90
12957;DHT22;6543;48.836;10.092;2023-03-31T03:45:00;9.40;99.90
12957;DHT22;6543;48.836;10.092;2023-03-31T03:47:28;10.90;99.90
12957;DHT22;6543;48.836;10.092;2023-03-31T03:49:55;9.10;99.90
12957;DHT22;6543;48.836;10.092;2023-03-31T03:52:22;9.00;99.90
12957;DHT22;6543;48.836;10.092;2023-03-31T03:54:49;8.90;99.90
12957;DHT22;6543;48.836;10.092;2023-03-31T03:57:16;10.10;99.90
12957;DHT22;6543;48.836;10.092;2023-03-31T03:59:43;8.90;99.90
12957;DHT22;6543;48.836;10.092;2023-03-31T04:02:10;9.60;99.90
12957;DHT22;6543;48.836;10.092;2023-03-31T04:04:38;8.90;99.90
12957;DHT22;6543;48.836;10.092;2023-03-31T04:07:06;8.90;99.90
12957;DHT22;6543;48.836;10.092;2023-03-31T04:09:33;8.80;99.90
12957;DHT22;6543;48.836;10.092;2023-03-31T04:12:00;9.30;99.90
12957;DHT22;6543;48.836;10.092;2023-03-31T04:14:26;10.80;99.90
12957;DHT22;6543;48.836;10.092;2023-03-31T04:16:53;11.00;99.90
12957;DHT22;6543;48.836;10.092;2023-03-31T04:19:20;8.90;99.90
12957;DHT22;6543;48.836;10.092;2023-03-31T04:21:51;10.00;99.90
12957;DHT22;6543;48.836;10.092;2023-03-31T04:24:23;9.00;99.90
12957;DHT22;6543;48.836;10.092;2023-03-31T04:26:55;9.70;99.90
12957;DHT22;6543;48.836;10.092;2023-03-31T04:29:22;8.90;99.90
12957;DHT22;6543;48.836;10.092;2023-03-31T04:31:51;8.90;99.90
12957;DHT22;6543;48.836;10.092;2023-03-31T04:34:18;8.90;99.90
12957;DHT22;6543;48.836;10.092;2023-03-31T04:36:47;8.90;99.90
12957;DHT22;6543;48.836;10.092;2023-03-31T04:39:17;8.90;99.90
12957;DHT22;6543;48.836;10.092;2023-03-31T04:41:51;8.90;99.90
12957;DHT22;6543;48.836;10.092;2023-03-31T04:44:18;8.90;99.90
12957;DHT22;6543;48.836;10.092;2023-03-31T04:46:45;9.80;99.90
12957;DHT22;6543;48.836;10.092;2023-03-31T04:49:12;8.70;99.90
12957;DHT22;6543;48.836;10.092;2023-03-31T04:51:39;8.70;99.90
12957;DHT22;6543;48.836;10.092;2023-03-31T04:54:06;10.70;99.90
12957;DHT22;6543;48.836;10.092;2023-03-31T04:56:34;9.40;99.90
12957;DHT22;6543;48.836;10.092;2023-03-31T04:59:01;9.00;99.90
12957;DHT22;6543;48.836;10.092;2023-03-31T05:01:29;8.50;99.90
12957;DHT22;6543;48.836;10.092;2023-03-31T05:03:58;8.50;99.90
12957;DHT22;6543;48.836;10.092;2023-03-31T05:06:25;8.50;99.90
12957;DHT22;6543;48.836;10.092;2023-03-31T05:08:52;9.90;99.90
12957;DHT22;6543;48.836;10.092;2023-03-31T05:11:18;8.40;99.90
12957;DHT22;6543;48.836;10.092;2023-03-31T05:13:47;8.50;99.90
12957;DHT22;6543;48.836;10.092;2023-03-31T05:16:14;8.50;99.90
12957;DHT22;6543;48.836;10.092;2023-03-31T05:18:41;8.50;99.90
12957;DHT22;6543;48.836;10.092;2023-03-31T05:21:10;8.60;99.90
12957;DHT22;6543;48.836;10.092;2023-03-31T05:23:37;8.60;99.90
12957;DHT22;6543;48.836;10.092;2023-03-31T05:26:04;8.60;99.90
12957;DHT22;6543;48.836;10.092;2023-03-31T05:28:32;8.50;99.90
12957;DHT22;6543;48.836;10.092;2023-03-31T05:31:01;10.80;99.90
12957;DHT22;6543;48.836;10.092;2023-03-31T05:33:29;8.40;99.90
12957;DHT22;6543;48.836;10.092;2023-03-31T05:35:56;9.90;99.90
12957;DHT22;6543;48.836;10.092;2023-03-31T05:38:25;8.90;99.90
12957;DHT22;6543;48.836;10.092;2023-03-31T05:40:54;8.60;99.90
12957;DHT22;6543;48.836;10.092;2023-03-31T05:43:21;9.80;99.90
12957;DHT22;6543;48.836;10.092;2023-03-31T05:45:48;9.30;99.90
12957;DHT22;6543;48.836;10.092;2023-03-31T05:48:16;8.50;99.90
12957;DHT22;6543;48.836;10.092;2023-03-31T05:50:43;10.00;99.90
12957;DHT22;6543;48.836;10.092;2023-03-31T05:53:10;8.70;99.90
12957;DHT22;6543;48.836;10.092;2023-03-31T05:55:37;10.40;99.90
12957;DHT22;6543;48.836;10.092;2023-03-31T05:58:05;8.90;99.90
12957;DHT22;6543;48.836;10.092;2023-03-31T06:00:33;9.20;99.90
12957;DHT22;6543;48.836;10.092;2023-03-31T06:03:00;10.30;99.90
12957;DHT22;6543;48.836;10.092;2023-03-31T06:05:29;9.20;99.90
12957;DHT22;6543;48.836;10.092;2023-03-31T06:07:57;11.00;99.90
12957;DHT22;6543;48.836;10.092;2023-03-31T06:10:23;9.20;99.90
12957;DHT22;6543;48.836;10.092;2023-03-31T06:12:50;9.00;99.90
12957;DHT22;6543;48.836;10.092;2023-03-31T06:15:17;9.00;99.90
12957;DHT22;6543;48.836;10.092;2023-03-31T06:17:44;10.30;99.90
12957;DHT22;6543;48.836;10.092;2023-03-31T06:20:12;9.00;99.90
12957;DHT22;6543;48.836;10.092;2023-03-31T06:22:44;9.00;99.90
12957;DHT22;6543;48.836;10.092;2023-03-31T06:25:11;8.90;99.90
12957;DHT22;6543;48.836;10.092;2023-03-31T06:27:38;8.80;99.90
12957;DHT22;6543;48.836;10.092;2023-03-31T06:30:06;9.90;99.90
12957;DHT22;6543;48.836;10.092;2023-03-31T06:32:33;8.80;99.90
12957;DHT22;6543;48.836;10.092;2023-03-31T06:35:01;8.80;99.90
12957;DHT22;6543;48.836;10.092;2023-03-31T06:37:28;8.90;99.90
12957;DHT22;6543;48.836;10.092;2023-03-31T06:39:57;7.00;99.90
12957;DHT22;6543;48.836;10.092;2023-03-31T06:42:24;9.00;99.90
12957;DHT22;6543;48.836;10.092;2023-03-31T06:44:51;9.30;99.90
12957;DHT22;6543;48.836;10.092;2023-03-31T06:47:20;9.20;99.90
12957;DHT22;6543;48.836;10.092;2023-03-31T06:49:50;9.30;99.90
12957;DHT22;6543;48.836;10.092;2023-03-31T06:52:18;9.00;99.90
12957;DHT22;6543;48.836;10.092;2023-03-31T06:54:45;9.10;99.90
12957;DHT22;6543;48.836;10.092;2023-03-31T06:57:14;9.40;99.90
12957;DHT22;6543;48.836;10.092;2023-03-31T06:59:42;9.00;99.90
12957;DHT22;6543;48.836;10.092;2023-03-31T07:02:09;9.70;99.90
12957;DHT22;6543;48.836;10.092;2023-03-31T07:04:36;9.00;99.90
12957;DHT22;6543;48.836;10.092;2023-03-31T07:07:03;9.00;99.90
12957;DHT22;6543;48.836;10.092;2023-03-31T07:09:30;8.90;99.90
12957;DHT22;6543;48.836;10.092;2023-03-31T07:11:57;8.90;99.90
12957;DHT22;6543;48.836;10.092;2023-03-31T07:14:25;8.90;99.90
12957;DHT22;6543;48.836;10.092;2023-03-31T07:16:52;8.90;99.90
12957;DHT22;6543;48.836;10.092;2023-03-31T07:19:19;8.90;99.90
12957;DHT22;6543;48.836;10.092;2023-03-31T07:21:46;9.20;99.90
12957;DHT22;6543;48.836;10.092;2023-03-31T07:24:13;10.20;99.90
12957;DHT22;6543;48.836;10.092;2023-03-31T07:26:40;10.60;99.90
12957;DHT22;6543;48.836;10.092;2023-03-31T07:29:07;11.20;99.90
12957;DHT22;6543;48.836;10.092;2023-03-31T07:31:36;7.80;99.90
12957;DHT22;6543;48.836;10.092;2023-03-31T07:34:03;8.90;99.90
12957;DHT22;6543;48.836;10.092;2023-03-31T07:36:32;9.80;99.90
12957;DHT22;6543;48.836;10.092;2023-03-31T07:38:59;10.80;99.90
12957;DHT22;6543;48.836;10.092;2023-03-31T07:41:27;9.80;99.90
12957;DHT22;6543;48.836;10.092;2023-03-31T07:43:54;10.20;99.90
12957;DHT22;6543;48.836;10.092;2023-03-31T07:46:25;9.80;99.90
12957;DHT22;6543;48.836;10.092;2023-03-31T07:48:57;11.60;99.90
12957;DHT22;6543;48.836;10.092;2023-03-31T07:51:26;9.30;99.90
12957;DHT22;6543;48.836;10.092;2023-03-31T07:53:53;10.00;99.90
12957;DHT22;6543;48.836;10.092;2023-03-31T07:56:22;9.40;99.90
12957;DHT22;6543;48.836;10.092;2023-03-31T07:58:50;9.50;99.90
12957;DHT22;6543;48.836;10.092;2023-03-31T08:01:20;9.60;99.90
12957;DHT22;6543;48.836;10.092;2023-03-31T08:03:50;9.70;99.90
12957;DHT22;6543;48.836;10.092;2023-03-31T08:06:21;10.40;99.90
12957;DHT22;6543;48.836;10.092;2023-03-31T08:08:49;9.90;99.90
12957;DHT22;6543;48.836;10.092;2023-03-31T08:11:17;10.00;99.90
12957;DHT22;6543;48.836;10.092;2023-03-31T08:13:45;10.20;99.90
12957;DHT22;6543;48.836;10.092;2023-03-31T08:16:12;10.40;99.90
12957;DHT22;6543;48.836;10.092;2023-03-31T08:18:39;10.50;99.90
12957;DHT22;6543;48.836;10.092;2023-03-31T08:21:06;10.60;99.90
12957;DHT22;6543;48.836;10.092;2023-03-31T08:23:38;10.50;99.90
12957;DHT22;6543;48.836;10.092;2023-03-31T08:26:07;11.90;99.90
12957;DHT22;6543;48.836;10.092;2023-03-31T08:28:35;12.30;99.90
12957;DHT22;6543;48.836;10.092;2023-03-31T08:31:03;10.80;99.90
12957;DHT22;6543;48.836;10.092;2023-03-31T08:33:30;10.70;99.90
12957;DHT22;6543;48.836;10.092;2023-03-31T08:36:01;10.80;99.90
12957;DHT22;6543;48.836;10.092;2023-03-31T08:38:29;10.70;99.90
12957;DHT22;6543;48.836;10.092;2023-03-31T08:41:01;12.50;99.90
12957;DHT22;6543;48.836;10.092;2023-03-31T08:43:31;12.00;99.90
12957;DHT22;6543;48.836;10.092;2023-03-31T08:46:00;11.80;99.90
12957;DHT22;6543;48.836;10.092;2023-03-31T08:48:31;11.00;99.90
12957;DHT22;6543;48.836;10.092;2023-03-31T08:51:06;12.60;99.90
12957;DHT22;6543;48.836;10.092;2023-03-31T08:53:40;11.00;99.90
12957;DHT22;6543;48.836;10.092;2023-03-31T08:56:14;11.00;99.90
12957;DHT22;6543;48.836;10.092;2023-03-31T08:58:44;11.80;99.90
12957;DHT22;6543;48.836;10.092;2023-03-31T09:01:21;12.50;99.90
12957;DHT22;6543;48.836;10.092;2023-03-31T09:04:05;13.70;99.90
12957;DHT22;6543;48.836;10.092;2023-03-31T09:06:40;11.90;99.90
12957;DHT22;6543;48.836;10.092;2023-03-31T09:09:12;13.00;99.90
12957;DHT22;6543;48.836;10.092;2023-03-31T09:11:49;12.60;99.90
12957;DHT22;6543;48.836;10.092;2023-03-31T09:14:24;11.60;99.90
12957;DHT22;6543;48.836;10.092;2023-03-31T09:17:01;12.70;99.90
12957;DHT22;6543;48.836;10.092;2023-03-31T09:19:42;14.10;99.90
12957;DHT22;6543;48.836;10.092;2023-03-31T09:22:16;13.20;99.90
12957;DHT22;6543;48.836;10.092;2023-03-31T09:24:51;12.00;99.90
12957;DHT22;6543;48.836;10.092;2023-03-31T09:27:23;11.90;99.90
12957;DHT22;6543;48.836;10.092;2023-03-31T09:29:56;12.00;99.90
12957;DHT22;6543;48.836;10.092;2023-03-31T09:32:28;12.10;99.90
12957;DHT22;6543;48.836;10.092;2023-03-31T09:34:59;12.10;99.90
12957;DHT22;6543;48.836;10.092;2023-03-31T09:37:30;12.10;99.90
12957;DHT22;6543;48.836;10.092;2023-03-31T09:39:59;12.20;99.90
12957;DHT22;6543;48.836;10.092;2023-03-31T09:42:29;13.20;99.90
12957;DHT22;6543;48.836;10.092;2023-03-31T09:44:56;12.90;99.90
12957;DHT22;6543;48.836;10.092;2023-03-31T09:47:27;14.40;99.90
12957;DHT22;6543;48.836;10.092;2023-03-31T09:49:56;12.70;99.90
12957;DHT22;6543;48.836;10.092;2023-03-31T09:52:27;13.60;99.90
12957;DHT22;6543;48.836;10.092;2023-03-31T09:54:57;13.10;99.90
12957;DHT22;6543;48.836;10.092;2023-03-31T09:57:28;12.50;99.90
12957;DHT22;6543;48.836;10.092;2023-03-31T10:00:03;14.20;99.90
12957;DHT22;6543;48.836;10.092;2023-03-31T10:02:38;13.90;99.90
12957;DHT22;6543;48.836;10.092;2023-03-31T10:05:21;13.60;99.90
12957;DHT22;6543;48.836;10.092;2023-03-31T10:07:48;11.40;99.90
12957;DHT22;6543;48.836;10.092;2023-03-31T10:10:26;13.30;99.90
12957;DHT22;6543;48.836;10.092;2023-03-31T10:12:55;13.90;99.90
12957;DHT22;6543;48.836;10.092;2023-03-31T10:15:26;14.30;99.90
12957;DHT22;6543;48.836;10.092;2023-03-31T10:17:57;13.50;99.90
12957;DHT22;6543;48.836;10.092;2023-03-31T10:20:31;14.10;99.90
12957;DHT22;6543;48.836;10.092;2023-03-31T10:23:04;13.80;99.90
12957;DHT22;6543;48.836;10.092;2023-03-31T10:25:32;13.90;99.90
12957;DHT22;6543;48.836;10.092;2023-03-31T10:28:02;14.20;99.90
12957;DHT22;6543;48.836;10.092;2023-03-31T10:30:33;14.40;99.90
12957;DHT22;6543;48.836;10.092;2023-03-31T10:33:12;14.50;99.90
12957;DHT22;6543;48.836;10.092;2023-03-31T10:35:40;15.50;99.90
12957;DHT22;6543;48.836;10.092;2023-03-31T10:38:12;14.60;99.90
12957;DHT22;6543;48.836;10.092;2023-03-31T10:40:42;14.20;99.90
12957;DHT22;6543;48.836;10.092;2023-03-31T10:43:19;14.00;99.90
12957;DHT22;6543;48.836;10.092;2023-03-31T10:45:49;12.40;99.90
12957;DHT22;6543;48.836;10.092;2023-03-31T10:48:19;15.00;99.90
12957;DHT22;6543;48.836;10.092;2023-03-31T10:50:49;13.40;99.90
12957;DHT22;6543;48.836;10.092;2023-03-31T10:53:17;13.20;99.90
12957;DHT22;6543;48.836;10.092;2023-03-31T10:55:54;13.90;99.90
12957;DHT22;6543;48.836;10.092;2023-03-31T10:58:34;13.90;99.90
12957;DHT22;6543;48.836;10.092;2023-03-31T11:01:13;14.30;99.90
12957;DHT22;6543;48.836;10.092;2023-03-31T11:03:58;13.90;99.90
12957;DHT22;6543;48.836;10.092;2023-03-31T11:06:32;15.00;99.90
12957;DHT22;6543;48.836;10.092;2023-03-31T11:09:15;15.00;99.90
12957;DHT22;6543;48.836;10.092;2023-03-31T11:11:57;13.70;99.90
12957;DHT22;6543;48.836;10.092;2023-03-31T11:14:39;14.30;99.90
12957;DHT22;6543;48.836;10.092;2023-03-31T11:17:15;14.10;99.90
12957;DHT22;6543;48.836;10.092;2023-03-31T11:19:52;14.40;99.90
12957;DHT22;6543;48.836;10.092;2023-03-31T11:22:27;14.30;99.90
12957;DHT22;6543;48.836;10.092;2023-03-31T11:25:12;14.90;99.90
12957;DHT22;6543;48.836;10.092;2023-03-31T11:28:04;15.20;99.90
12957;DHT22;6543;48.836;10.092;2023-03-31T11:30:41;15.60;99.90
12957;DHT22;6543;48.836;10.092;2023-03-31T11:33:34;16.60;99.90
12957;DHT22;6543;48.836;10.092;2023-03-31T11:36:15;15.20;99.90
12957;DHT22;6543;48.836;10.092;2023-03-31T11:38:53;15.30;99.90
12957;DHT22;6543;48.836;10.092;2023-03-31T11:41:31;15.10;99.90
12957;DHT22;6543;48.836;10.092;2023-03-31T11:44:01;15.20;99.90
12957;DHT22;6543;48.836;10.092;2023-03-31T11:46:38;15.10;99.90
12957;DHT22;6543;48.836;10.092;2023-03-31T11:49:14;15.60;99.90
12957;DHT22;6543;48.836;10.092;2023-03-31T11:51:46;16.00;99.90
12957;DHT22;6543;48.836;10.092;2023-03-31T11:54:18;14.20;99.90
12957;DHT22;6543;48.836;10.092;2023-03-31T11:56:46;15.50;99.90
12957;DHT22;6543;48.836;10.092;2023-03-31T11:59:15;15.20;99.90
12957;DHT22;6543;48.836;10.092;2023-03-31T12:01:49;14.90;99.90
12957;DHT22;6543;48.836;10.092;2023-03-31T12:04:27;14.70;99.90
12957;DHT22;6543;48.836;10.092;2023-03-31T12:06:59;15.20;99.90
12957;DHT22;6543;48.836;10.092;2023-03-31T12:09:36;11.70;99.90
12957;DHT22;6543;48.836;10.092;2023-03-31T12:12:10;9.40;99.90
12957;DHT22;6543;48.836;10.092;2023-03-31T12:14:42;9.20;99.90
12957;DHT22;6543;48.836;10.092;2023-03-31T12:17:14;8.90;99.90
12957;DHT22;6543;48.836;10.092;2023-03-31T12:19:48;8.30;99.90
12957;DHT22;6543;48.836;10.092;2023-03-31T12:22:21;9.90;99.90
12957;DHT22;6543;48.836;10.092;2023-03-31T12:24:50;8.40;99.90
12957;DHT22;6543;48.836;10.092;2023-03-31T12:27:20;8.60;99.90
12957;DHT22;6543;48.836;10.092;2023-03-31T12:29:55;8.50;99.90
12957;DHT22;6543;48.836;10.092;2023-03-31T12:32:27;8.50;99.90
12957;DHT22;6543;48.836;10.092;2023-03-31T12:34:58;8.50;99.90
12957;DHT22;6543;48.836;10.092;2023-03-31T12:40:48;10.50;99.90
12957;DHT22;6543;48.836;10.092;2023-03-31T12:46:26;9.20;99.90
12957;DHT22;6543;48.836;10.092;2023-03-31T12:49:06;10.50;99.90
12957;DHT22;6543;48.836;10.092;2023-03-31T12:51:51;9.60;99.90
12957;DHT22;6543;48.836;10.092;2023-03-31T12:57:20;9.90;99.90
12957;DHT22;6543;48.836;10.092;2023-03-31T13:02:51;9.40;99.90
12957;DHT22;6543;48.836;10.092;2023-03-31T13:05:47;10.30;99.90
12957;DHT22;6543;48.836;10.092;2023-03-31T13:08:52;10.30;99.90
12957;DHT22;6543;48.836;10.092;2023-03-31T13:11:21;10.50;99.90
12957;DHT22;6543;48.836;10.092;2023-03-31T13:13:58;10.70;99.90
12957;DHT22;6543;48.836;10.092;2023-03-31T13:16:26;10.70;99.90
12957;DHT22;6543;48.836;10.092;2023-03-31T13:18:55;10.90;99.90
12957;DHT22;6543;48.836;10.092;2023-03-31T13:21:25;12.60;99.90
12957;DHT22;6543;48.836;10.092;2023-03-31T13:23:53;11.50;99.90
12957;DHT22;6543;48.836;10.092;2023-03-31T13:26:39;10.50;99.90
12957;DHT22;6543;48.836;10.092;2023-03-31T13:29:23;9.50;99.90
12957;DHT22;6543;48.836;10.092;2023-03-31T13:32:20;11.30;99.90
12957;DHT22;6543;48.836;10.092;2023-03-31T13:34:53;11.40;99.90
12957;DHT22;6543;48.836;10.092;2023-03-31T13:37:41;13.00;99.90
12957;DHT22;6543;48.836;10.092;2023-03-31T13:40:20;11.70;99.90
12957;DHT22;6543;48.836;10.092;2023-03-31T13:42:57;13.90;99.90
12957;DHT22;6543;48.836;10.092;2023-03-31T13:45:42;12.20;99.90
12957;DHT22;6543;48.836;10.092;2023-03-31T13:48:23;12.30;99.90
12957;DHT22;6543;48.836;10.092;2023-03-31T13:51:06;12.30;99.90
12957;DHT22;6543;48.836;10.092;2023-03-31T13:53:56;14.00;99.90
12957;DHT22;6543;48.836;10.092;2023-03-31T13:56:45;12.40;99.90
12957;DHT22;6543;48.836;10.092;2023-03-31T13:59:30;12.20;99.90
12957;DHT22;6543;48.836;10.092;2023-03-31T14:02:10;11.90;99.90
12957;DHT22;6543;48.836;10.092;2023-03-31T14:05:02;11.70;99.90
12957;DHT22;6543;48.836;10.092;2023-03-31T14:07:37;11.70;99.90
12957;DHT22;6543;48.836;10.092;2023-03-31T14:10:24;11.70;99.90
12957;DHT22;6543;48.836;10.092;2023-03-31T14:13:02;11.50;99.90
12957;DHT22;6543;48.836;10.092;2023-03-31T14:15:29;11.20;99.90
12957;DHT22;6543;48.836;10.092;2023-03-31T14:17:57;11.00;99.90
12957;DHT22;6543;48.836;10.092;2023-03-31T14:20:29;11.90;99.90
12957;DHT22;6543;48.836;10.092;2023-03-31T14:23:10;10.40;99.90
12957;DHT22;6543;48.836;10.092;2023-03-31T14:25:46;10.50;99.90
12957;DHT22;6543;48.836;10.092;2023-03-31T14:28:34;10.50;99.90
12957;DHT22;6543;48.836;10.092;2023-03-31T14:31:14;10.60;99.90
12957;DHT22;6543;48.836;10.092;2023-03-31T14:33:57;12.50;99.90
12957;DHT22;6543;48.836;10.092;2023-03-31T14:36:32;10.40;99.90
12957;DHT22;6543;48.836;10.092;2023-03-31T14:39:05;10.40;99.90
12957;DHT22;6543;48.836;10.092;2023-03-31T14:41:35;10.30;99.90
12957;DHT22;6543;48.836;10.092;2023-03-31T14:44:05;10.30;99.90
12957;DHT22;6543;48.836;10.092;2023-03-31T14:46:37;9.90;99.90
12957;DHT22;6543;48.836;10.092;2023-03-31T14:49:20;9.70;99.90
12957;DHT22;6543;48.836;10.092;2023-03-31T14:51:48;9.60;99.90
12957;DHT22;6543;48.836;10.092;2023-03-31T14:54:19;9.60;99.90
12957;DHT22;6543;48.836;10.092;2023-03-31T14:56:49;9.60;99.90
12957;DHT22;6543;48.836;10.092;2023-03-31T14:59:23;9.50;99.90
12957;DHT22;6543;48.836;10.092;2023-03-31T15:01:52;11.30;99.90
12957;DHT22;6543;48.836;10.092;2023-03-31T15:04:22;9.90;99.90
12957;DHT22;6543;48.836;10.092;2023-03-31T15:06:51;11.90;99.90
12957;DHT22;6543;48.836;10.092;2023-03-31T15:09:22;11.80;99.90
12957;DHT22;6543;48.836;10.092;2023-03-31T15:11:57;10.50;99.90
12957;DHT22;6543;48.836;10.092;2023-03-31T15:14:28;11.70;99.90
12957;DHT22;6543;48.836;10.092;2023-03-31T15:16:55;11.40;99.90
12957;DHT22;6543;48.836;10.092;2023-03-31T15:19:24;12.50;99.90
12957;DHT22;6543;48.836;10.092;2023-03-31T15:21:57;12.80;99.90
12957;DHT22;6543;48.836;10.092;2023-03-31T15:24:26;11.60;99.90
12957;DHT22;6543;48.836;10.092;2023-03-31T15:27:00;11.20;99.90
12957;DHT22;6543;48.836;10.092;2023-03-31T15:29:34;12.30;99.90
12957;DHT22;6543;48.836;10.092;2023-03-31T15:32:07;12.10;99.90
12957;DHT22;6543;48.836;10.092;2023-03-31T15:34:37;11.00;99.90
12957;DHT22;6543;48.836;10.092;2023-03-31T15:37:07;9.00;99.90
12957;DHT22;6543;48.836;10.092;2023-03-31T15:39:36;10.90;99.90
12957;DHT22;6543;48.836;10.092;2023-03-31T15:42:07;11.20;99.90
12957;DHT22;6543;48.836;10.092;2023-03-31T15:44:38;11.00;99.90
12957;DHT22;6543;48.836;10.092;2023-03-31T15:47:17;12.80;99.90
12957;DHT22;6543;48.836;10.092;2023-03-31T15:49:50;11.10;99.90
12957;DHT22;6543;48.836;10.092;2023-03-31T15:52:44;11.20;99.90
12957;DHT22;6543;48.836;10.092;2023-03-31T15:55:25;11.40;99.90
12957;DHT22;6543;48.836;10.092;2023-03-31T15:57:56;11.40;99.90
12957;DHT22;6543;48.836;10.092;2023-03-31T16:00:41;11.50;99.90
12957;DHT22;6543;48.836;10.092;2023-03-31T16:03:17;11.50;99.90
12957;DHT22;6543;48.836;10.092;2023-03-31T16:05:51;11.60;99.90
12957;DHT22;6543;48.836;10.092;2023-03-31T16:08:23;11.70;99.90
12957;DHT22;6543;48.836;10.092;2023-03-31T16:10:56;11.60;99.90
12957;DHT22;6543;48.836;10.092;2023-03-31T16:13:26;11.50;99.90
12957;DHT22;6543;48.836;10.092;2023-03-31T16:15:56;12.80;99.90
12957;DHT22;6543;48.836;10.092;2023-03-31T16:18:29;11.20;99.90
12957;DHT22;6543;48.836;10.092;2023-03-31T16:21:02;11.70;99.90
12957;DHT22;6543;48.836;10.092;2023-03-31T16:23:32;11.20;99.90
12957;DHT22;6543;48.836;10.092;2023-03-31T16:26:03;9.20;99.90
12957;DHT22;6543;48.836;10.092;2023-03-31T16:28:35;11.10;99.90